TAF VAPR 110500Z 0409/0418 05004KT 6000 NSC
From batch tds/tafs/production/2023/2/4/h08_m59_tafs.cache.xml
Issued (7 days ago)
Forecasts TAF VAPR 110500Z 0409/0418 05004KT 6000 NSC
BECMG 0410/0412 01006KT
BECMG 0413/0418 4000 FU
TAF SGEN 042338Z 0400/0500 24012KT 9999 SCT020 TX32/0419Z TN21/0409Z
From batch tds/tafs/production/2023/2/3/h23_m59_tafs.cache.xml
Issued (about 14 hours ago)
Forecasts TAF SGEN 042338Z 0400/0500 24012KT 9999 SCT020 TX32/0419Z TN21/0409Z
PROB40 0408/0411 1200 BR BKN015
BECMG 0414/0416 9999 BKN027
TAF SGCO 042338Z 0400/0500 24007KT 9999 SCT020 TX32/0419Z TN22/0409Z
From batch tds/tafs/production/2023/2/3/h23_m59_tafs.cache.xml
Issued (about 14 hours ago)
Forecasts TAF SGCO 042338Z 0400/0500 24007KT 9999 SCT020 TX32/0419Z TN22/0409Z
PROB40 0407/0410 1200 BR BKN012
PROB30 0411/0413 23006KT 7000 TSRA BKN015 FEW040CB
BECMG 0415/0416 15008KT 9999 BKN027
KBUF 040927Z 0409/0506 13004KT P6SM SCT015
From batch tds/tafs/production/2023/2/4/h09_m29_tafs.cache.xml
Issued (28 minutes ago)
Forecasts KBUF 040927Z 0409/0506 13004KT P6SM SCT015
TEMPO 0409/0411 BKN015
FM041400 19010KT P6SM VCSH BKN025
FM041700 21016G25KT P6SM BKN090
FM042100 21015G25KT P6SM BKN150
TAF AMD CYPH 040926Z 0409/0418 20010KT P6SM -SN OVC050
From batch tds/tafs/production/2023/2/4/h09_m29_tafs.cache.xml
Issued (29 minutes ago)
Forecasts TAF AMD CYPH 040926Z 0409/0418 20010KT P6SM -SN OVC050
TEMPO 0409/0418 2SM -SN OVC020 RMK FCST BASED ON AUTO OBS. NXT FCST BY 041200Z
PAUN 040926Z 0409/0506 08020KT 1SM -SN BR BKN014 BKN020 OVC030
From batch tds/tafs/production/2023/2/4/h09_m29_tafs.cache.xml
Issued (29 minutes ago)
Forecasts PAUN 040926Z 0409/0506 08020KT 1SM -SN BR BKN014 BKN020 OVC030
TEMPO 0410/0414 3SM -SN BR
FM042000 08015KT P6SM VCSH SCT020 BKN040 OVC080
TAF AMD CYGQ 040925Z 0409/0420 VRB03KT 3SM -SN OVC015
From batch tds/tafs/production/2023/2/4/h09_m29_tafs.cache.xml
Issued (30 minutes ago)
Forecasts TAF AMD CYGQ 040925Z 0409/0420 VRB03KT 3SM -SN OVC015
TEMPO 0409/0412 1SM -SN OVC008
FM041300 24010G20KT 6SM -SN OVC025
TEMPO 0413/0420 3SM -SN OVC015
BECMG 0416/0418 27012KT RMK FCST BASED ON AUTO OBS. NXT FCST BY 041400Z
KOGB 040925Z 0409/0506 05008KT P6SM SKC
From batch tds/tafs/production/2023/2/4/h09_m29_tafs.cache.xml
Issued (30 minutes ago)
Forecasts KOGB 040925Z 0409/0506 05008KT P6SM SKC
FM041400 07007KT P6SM SKC
KAGS 040925Z 0409/0506 05005KT P6SM SKC
From batch tds/tafs/production/2023/2/4/h09_m29_tafs.cache.xml
Issued (30 minutes ago)
Forecasts KAGS 040925Z 0409/0506 05005KT P6SM SKC
FM041400 07006KT P6SM SKC
KCUB 040925Z 0409/0506 VRB03KT P6SM SKC
From batch tds/tafs/production/2023/2/4/h09_m29_tafs.cache.xml
Issued (30 minutes ago)
Forecasts KCUB 040925Z 0409/0506 VRB03KT P6SM SKC
FM041400 08006KT P6SM SKC
KCAE 040925Z 0409/0506 05005KT P6SM SKC
From batch tds/tafs/production/2023/2/4/h09_m29_tafs.cache.xml
Issued (30 minutes ago)
Forecasts KCAE 040925Z 0409/0506 05005KT P6SM SKC
FM041400 08006KT P6SM SKC
KDNL 040925Z 0409/0506 05006KT P6SM SKC
From batch tds/tafs/production/2023/2/4/h09_m29_tafs.cache.xml
Issued (30 minutes ago)
Forecasts KDNL 040925Z 0409/0506 05006KT P6SM SKC
FM041400 07006KT P6SM SKC
TAF AMD LOWS 040924Z 0409/0506 29010KT 9999 SCT030 BKN050 TX06/0413Z TNM03/0506Z
From batch tds/tafs/production/2023/2/4/h09_m29_tafs.cache.xml
Issued (31 minutes ago)
Forecasts TAF AMD LOWS 040924Z 0409/0506 29010KT 9999 SCT030 BKN050 TX06/0413Z TNM03/0506Z
TEMPO 0409/0411 35015KT 1000 SHSN BKN007
BECMG 0412/0414 27006KT
KCLE 040924Z 0409/0512 17005KT P6SM BKN100
From batch tds/tafs/production/2023/2/4/h09_m29_tafs.cache.xml
Issued (31 minutes ago)
Forecasts KCLE 040924Z 0409/0512 17005KT P6SM BKN100
FM041600 20015G25KT P6SM SCT200
TAF AMD LFOP 040924Z 0409/0506 30007KT 9999 SCT008 OVC023
From batch tds/tafs/production/2023/2/4/h09_m29_tafs.cache.xml
Issued (31 minutes ago)
Forecasts TAF AMD LFOP 040924Z 0409/0506 30007KT 9999 SCT008 OVC023
TEMPO 0409/0506 OVC007
PROB40
TEMPO 0421/0506 2000 DZ BR OVC003
KSAW 040924Z 0409/0506 20014G19KT P6SM BKN050 OVC100
From batch tds/tafs/production/2023/2/4/h09_m29_tafs.cache.xml
Issued (31 minutes ago)
Forecasts KSAW 040924Z 0409/0506 20014G19KT P6SM BKN050 OVC100
FM041200 20012G23KT P6SM SCT190
FM041700 22011G19KT P6SM SCT220
FM042000 21009KT P6SM SCT140
FM050500 22006KT P6SM BKN070
KCMX 040924Z 0409/0506 20012G21KT P6SM OVC040
From batch tds/tafs/production/2023/2/4/h09_m29_tafs.cache.xml
Issued (31 minutes ago)
Forecasts KCMX 040924Z 0409/0506 20012G21KT P6SM OVC040
FM041800 24011G19KT P6SM BKN035
FM050200 23005KT P6SM BKN028
FM050300 23005KT P6SM SCT021
TAF AMD LFOH 040923Z 0409/0506 29005KT 9999 SCT007 OVC023
From batch tds/tafs/production/2023/2/4/h09_m29_tafs.cache.xml
Issued (32 minutes ago)
Forecasts TAF AMD LFOH 040923Z 0409/0506 29005KT 9999 SCT007 OVC023
TEMPO 0409/0506 OVC007
PROB40
TEMPO 0421/0506 2000 DZ BR OVC003
BECMG 0503/0506 35013KT
KJVL 040922Z 0409/0506 17011KT P6SM FEW050 WS020/23041KT
From batch tds/tafs/production/2023/2/4/h09_m29_tafs.cache.xml
Issued (33 minutes ago)
Forecasts KJVL 040922Z 0409/0506 17011KT P6SM FEW050 WS020/23041KT
FM041500 20011G21KT P6SM FEW250
FM042000 22010G18KT P6SM BKN210
FM050100 21011G20KT P6SM BKN210 WS020/23044KT
KMSN 040922Z 0409/0506 18009KT P6SM FEW050 WS020/23041KT
From batch tds/tafs/production/2023/2/4/h09_m29_tafs.cache.xml
Issued (33 minutes ago)
Forecasts KMSN 040922Z 0409/0506 18009KT P6SM FEW050 WS020/23041KT
FM041500 20010G20KT P6SM FEW250
FM042000 22009KT P6SM BKN210
FM050100 21010G19KT P6SM BKN210 WS020/23041KT
KMKE 040922Z 0409/0512 19007KT P6SM BKN050
From batch tds/tafs/production/2023/2/4/h09_m29_tafs.cache.xml
Issued (33 minutes ago)
Forecasts KMKE 040922Z 0409/0512 19007KT P6SM BKN050
FM041100 20011G24KT P6SM FEW060 SCT150 WS020/23042KT
FM041500 22013G25KT P6SM SCT250
FM042000 22009G19KT P6SM BKN210
FM050000 21011G23KT P6SM BKN200 WS020/24042KT
FM050500 24012G25KT P6SM BKN100 WS020/24045KT
KUES 040922Z 0409/0506 18009KT P6SM BKN050
From batch tds/tafs/production/2023/2/4/h09_m29_tafs.cache.xml
Issued (33 minutes ago)
Forecasts KUES 040922Z 0409/0506 18009KT P6SM BKN050
FM041100 19010G22KT P6SM FEW200 WS020/22040KT
FM041500 21012G25KT P6SM FEW250
FM042000 22010G21KT P6SM BKN250
FM050000 21010G22KT P6SM BKN200 WS020/25045KT
KSBM 040922Z 0409/0506 20013KT P6SM BKN050
From batch tds/tafs/production/2023/2/4/h09_m29_tafs.cache.xml
Issued (33 minutes ago)
Forecasts KSBM 040922Z 0409/0506 20013KT P6SM BKN050
FM041100 21013G24KT P6SM FEW050 SCT200 WS020/23043KT
FM041500 22012G21KT P6SM SCT250
FM042100 22010KT P6SM BKN230
FM050200 21009G18KT P6SM BKN210
KENW 040922Z 0409/0506 19010KT P6SM BKN050
From batch tds/tafs/production/2023/2/4/h09_m29_tafs.cache.xml
Issued (33 minutes ago)
Forecasts KENW 040922Z 0409/0506 19010KT P6SM BKN050
FM041100 19011G22KT P6SM FEW050 SCT200 WS020/23043KT
FM041500 22013G25KT P6SM SCT250
FM042000 22011G21KT P6SM BKN210
FM050000 21011G23KT P6SM BKN200 WS020/24042KT
FM050500 24013G27KT P6SM BKN100 WS020/24046KT
TAF AMD LSZH 040922Z 0409/0515 VRB02KT 9999 SCT012 BKN030 TX08/0414Z TN01/0505Z TX05/0513Z
From batch tds/tafs/production/2023/2/4/h09_m29_tafs.cache.xml
Issued (33 minutes ago)
Forecasts TAF AMD LSZH 040922Z 0409/0515 VRB02KT 9999 SCT012 BKN030 TX08/0414Z TN01/0505Z TX05/0513Z
PROB40
TEMPO 0409/0412 RA
PROB30
TEMPO 0409/0422 RA BKN012
PROB30
TEMPO 0502/0507 3000 BCFG SCT020
PROB30
TEMPO 0510/0515 RA
talk